Time;durP1;ratioP1;P1;durP2;ratioP2;P2;SDS_P1;SDS_P2;PMS_P1;PMS_P2;Temp;Humidity;BMP_temperature;BMP_pressure;BME280_temperature;BME280_humidity;BME280_pressure;Samples;Min_cycle;Max_cycle;Signal;HPM_P1;HPM_P2
2023/03/02 00:02:00;;;;;;;9.90;8.25;;;1.00;87.00;;;;;;5069973;28;20032;-81
2023/03/02 00:04:32;;;;;;;11.95;7.90;;;1.00;87.00;;;;;;5081074;28;20031;-77
2023/03/02 00:07:02;;;;;;;9.35;6.65;;;1.00;87.20;;;;;;5073424;28;20465;-81
2023/03/02 00:09:29;;;;;;;8.95;7.20;;;0.80;86.70;;;;;;5054179;28;20032;-82
2023/03/02 00:11:55;;;;;;;7.80;5.55;;;0.80;87.20;;;;;;5070240;28;20555;-81
2023/03/02 00:14:21;;;;;;;12.85;8.45;;;0.90;87.80;;;;;;5088756;28;20490;-79
2023/03/02 00:16:46;;;;;;;11.52;7.90;;;0.90;87.90;;;;;;5061311;28;20028;-81
2023/03/02 00:19:12;;;;;;;10.27;7.85;;;1.00;88.30;;;;;;5044400;28;20490;-81
2023/03/02 00:21:38;;;;;;;5.15;4.65;;;1.00;87.40;;;;;;5065283;28;20040;-80
2023/03/02 00:24:03;;;;;;;11.32;8.57;;;0.90;87.80;;;;;;5071389;28;20135;-82
2023/03/02 00:26:35;;;;;;;12.23;8.55;;;1.00;87.60;;;;;;5087091;28;20567;-83
2023/03/02 00:29:01;;;;;;;8.27;6.82;;;0.90;87.50;;;;;;5062956;28;20037;-82
2023/03/02 00:31:27;;;;;;;9.15;7.85;;;0.80;86.90;;;;;;5067575;28;20119;-82
2023/03/02 00:33:53;;;;;;;9.27;7.47;;;0.80;87.10;;;;;;5088380;28;20098;-82
2023/03/02 00:36:20;;;;;;;10.75;7.53;;;0.90;87.90;;;;;;5071477;28;20501;-78
2023/03/02 00:38:46;;;;;;;11.73;8.90;;;1.00;87.90;;;;;;5070599;28;20032;-84
2023/03/02 00:41:13;;;;;;;8.55;7.60;;;1.00;87.60;;;;;;5088524;28;20050;-85
2023/03/02 00:43:40;;;;;;;8.25;7.43;;;1.00;87.60;;;;;;5091602;28;20077;-82
2023/03/02 00:46:11;;;;;;;10.60;8.15;;;1.00;88.00;;;;;;5070055;28;20088;-81
2023/03/02 00:48:37;;;;;;;13.43;7.78;;;1.00;87.60;;;;;;5088080;28;20032;-84
2023/03/02 00:51:02;;;;;;;11.18;7.57;;;1.00;87.60;;;;;;5088110;28;20393;-80
2023/03/02 00:53:28;;;;;;;13.15;7.88;;;1.00;87.60;;;;;;5070296;28;20055;-83
2023/03/02 00:55:54;;;;;;;9.30;7.70;;;0.90;88.00;;;;;;5088629;28;20099;-79
2023/03/02 00:58:20;;;;;;;10.18;7.07;;;1.00;88.10;;;;;;5088990;28;20035;-83
2023/03/02 01:00:46;;;;;;;10.75;7.60;;;0.90;87.60;;;;;;5088436;28;20035;-80
2023/03/02 01:03:12;;;;;;;12.05;7.97;;;0.80;87.30;;;;;;5087978;28;20032;-84
2023/03/02 01:05:38;;;;;;;9.48;7.20;;;0.80;87.10;;;;;;5088549;28;20036;-83
2023/03/02 01:08:03;;;;;;;10.13;8.35;;;0.90;88.40;;;;;;5070572;28;20032;-81
2023/03/02 01:10:33;;;;;;;10.25;8.00;;;0.90;88.50;;;;;;5070398;28;20060;-83
2023/03/02 01:12:58;;;;;;;8.32;7.32;;;0.80;88.50;;;;;;5085899;28;20028;-82
2023/03/02 01:15:24;;;;;;;9.90;8.05;;;0.90;88.50;;;;;;5088613;28;20034;-78
2023/03/02 01:17:50;;;;;;;9.60;8.02;;;0.80;88.60;;;;;;5087992;28;20028;-81
2023/03/02 01:20:16;;;;;;;12.10;7.72;;;0.90;88.40;;;;;;5088192;28;20062;-82
2023/03/02 01:22:43;;;;;;;9.15;6.93;;;0.80;87.50;;;;;;5072320;28;20047;-82
2023/03/02 01:25:10;;;;;;;10.32;7.80;;;0.70;87.80;;;;;;5091842;28;20111;-83
2023/03/02 01:27:36;;;;;;;8.38;5.85;;;0.80;88.90;;;;;;5091737;28;20031;-82
2023/03/02 01:30:02;;;;;;;9.80;7.28;;;0.90;89.10;;;;;;5056732;28;20031;-81
2023/03/02 01:32:27;;;;;;;9.00;7.28;;;0.90;88.80;;;;;;5054596;28;20119;-84
2023/03/02 01:34:53;;;;;;;10.52;6.03;;;0.90;88.80;;;;;;5092178;28;20107;-80
2023/03/02 01:37:19;;;;;;;11.73;9.43;;;0.90;89.10;;;;;;5091523;28;20376;-83
2023/03/02 01:39:45;;;;;;;12.07;8.57;;;1.00;88.50;;;;;;5055966;28;20035;-84
2023/03/02 01:42:11;;;;;;;11.95;8.13;;;0.80;88.40;;;;;;5073860;28;20111;-84
2023/03/02 01:44:45;;;;;;;7.85;6.97;;;0.80;88.40;;;;;;5091690;28;20103;-84
2023/03/02 01:47:21;;;;;;;8.90;7.03;;;0.80;88.70;;;;;;5087686;28;20516;-83
2023/03/02 01:49:57;;;;;;;16.77;6.13;;;0.90;89.10;;;;;;5091360;28;20032;-84
2023/03/02 01:52:24;;;;;;;6.95;6.20;;;0.90;89.10;;;;;;5091764;28;20519;-82
2023/03/02 01:54:52;;;;;;;7.10;5.85;;;0.80;89.30;;;;;;5090692;28;20085;-85
2023/03/02 01:57:33;;;;;;;7.22;5.85;;;0.80;89.50;;;;;;5092497;28;20436;-82
2023/03/02 02:00:09;;;;;;;7.43;6.65;;;0.90;89.10;;;;;;5090115;28;20020;-82
2023/03/02 02:02:35;;;;;;;8.82;6.80;;;0.90;89.30;;;;;;5090272;28;20031;-82
2023/03/02 02:05:02;;;;;;;9.23;7.22;;;0.90;88.90;;;;;;5091716;28;20055;-79
2023/03/02 02:07:28;;;;;;;12.25;7.93;;;0.80;88.10;;;;;;5088842;28;20028;-80
2023/03/02 02:09:55;;;;;;;10.32;7.47;;;0.80;88.90;;;;;;5091951;28;20085;-78
2023/03/02 02:12:22;;;;;;;10.82;7.30;;;0.80;88.80;;;;;;5074373;28;20363;-78
2023/03/02 02:14:48;;;;;;;8.82;7.38;;;0.80;90.00;;;;;;5072917;28;20040;-78
2023/03/02 02:17:16;;;;;;;11.32;7.25;;;0.80;89.30;;;;;;5072849;28;20020;-79
2023/03/02 02:20:22;;;;;;;9.07;6.97;;;0.70;89.40;;;;;;5091222;28;20028;-82
2023/03/02 02:23:11;;;;;;;7.00;5.57;;;0.80;89.70;;;;;;5051012;28;20040;-78
2023/03/02 02:25:43;;;;;;;6.95;5.53;;;0.90;89.60;;;;;;5096950;28;20457;-77
2023/03/02 02:28:29;;;;;;;8.48;6.85;;;0.90;89.20;;;;;;5076172;28;20098;-79
2023/03/02 02:31:26;;;;;;;12.02;7.50;;;0.90;89.40;;;;;;5092391;28;20027;-83
2023/03/02 02:33:59;;;;;;;5.65;5.15;;;0.90;89.60;;;;;;5059449;28;20497;-82
2023/03/02 02:36:32;;;;;;;12.30;7.30;;;0.90;89.70;;;;;;5093314;28;20035;-79
2023/03/02 02:39:03;;;;;;;13.52;8.18;;;0.90;89.60;;;;;;5094832;28;20153;-77
2023/03/02 02:41:31;;;;;;;;;;;0.90;90.10;;;;;;5079741;28;20397;-82
2023/03/02 02:43:57;;;;;;;8.40;6.78;;;0.90;89.40;;;;;;5076014;28;19919;-77
2023/03/02 02:46:23;;;;;;;10.13;7.43;;;0.90;89.50;;;;;;5078168;28;20036;-79
2023/03/02 02:48:49;;;;;;;8.85;7.10;;;1.00;89.50;;;;;;5075240;28;20035;-80
2023/03/02 02:51:20;;;;;;;11.45;7.85;;;1.00;89.70;;;;;;5096050;28;20036;-79
2023/03/02 02:53:57;;;;;;;9.13;7.78;;;1.00;89.70;;;;;;5093128;28;20036;-77
2023/03/02 02:56:25;;;;;;;9.63;7.82;;;0.90;89.00;;;;;;5096136;28;20012;-79
2023/03/02 02:58:53;;;;;;;13.32;8.43;;;0.80;88.90;;;;;;5095536;28;20433;-83
2023/03/02 03:01:25;;;;;;;10.93;7.47;;;0.70;89.10;;;;;;5093950;28;20012;-78
2023/03/02 03:04:02;;;;;;;7.60;6.88;;;0.80;89.80;;;;;;5075685;28;20039;-81
2023/03/02 03:06:37;;;;;;;7.38;6.60;;;0.90;90.20;;;;;;5093839;28;20028;-78
2023/03/02 03:09:07;;;;;;;10.10;7.43;;;0.90;89.80;;;;;;5092216;28;20023;-81
2023/03/02 03:11:39;;;;;;;9.37;7.00;;;0.80;90.00;;;;;;5073816;28;20062;-77
2023/03/02 03:14:14;;;;;;;11.07;8.05;;;0.90;90.10;;;;;;5074637;28;20269;-78
2023/03/02 03:16:42;;;;;;;8.40;7.15;;;0.70;89.60;;;;;;5076607;28;20040;-79
2023/03/02 03:19:26;;;;;;;11.82;7.68;;;0.80;89.00;;;;;;5092054;28;20113;-81
2023/03/02 03:21:55;;;;;;;10.32;8.30;;;0.80;90.00;;;;;;5092881;28;20401;-79
2023/03/02 03:24:21;;;;;;;9.90;7.25;;;0.80;90.00;;;;;;5096117;28;20043;-78
2023/03/02 03:26:47;;;;;;;11.45;7.03;;;0.80;90.10;;;;;;5094905;28;20107;-77
2023/03/02 03:29:13;;;;;;;9.00;7.07;;;0.80;90.20;;;;;;5057304;28;20143;-85
2023/03/02 03:31:39;;;;;;;9.73;7.97;;;0.80;90.00;;;;;;5094588;28;20036;-80
2023/03/02 03:34:04;;;;;;;10.70;7.75;;;0.80;90.10;;;;;;5095979;28;20027;-82
2023/03/02 03:36:31;;;;;;;10.40;7.47;;;0.90;90.00;;;;;;5072982;28;20032;-80
2023/03/02 03:38:57;;;;;;;10.93;8.20;;;0.90;89.70;;;;;;5108543;27;20024;-78
2023/03/02 03:41:24;;;;;;;9.68;6.72;;;0.70;89.50;;;;;;5092462;28;20040;-82
2023/03/02 03:43:49;;;;;;;6.75;6.10;;;0.60;88.90;;;;;;5071583;28;20458;-79
2023/03/02 03:46:15;;;;;;;12.90;7.95;;;0.70;90.20;;;;;;5075580;28;20032;-81
2023/03/02 03:48:41;;;;;;;9.95;6.97;;;0.90;90.00;;;;;;5077083;28;20032;-77
2023/03/02 03:51:07;;;;;;;9.98;6.80;;;0.90;89.80;;;;;;5073116;28;20450;-81
2023/03/02 03:53:33;;;;;;;11.15;7.70;;;0.90;90.10;;;;;;5092443;28;20107;-80
2023/03/02 03:55:59;;;;;;;11.88;8.10;;;0.80;90.20;;;;;;5097493;28;20033;-78
2023/03/02 03:58:26;;;;;;;7.22;6.35;;;0.90;90.00;;;;;;5093832;28;20047;-83
2023/03/02 04:00:52;;;;;;;8.07;6.80;;;0.90;90.00;;;;;;5096974;28;20043;-80
2023/03/02 04:03:18;;;;;;;58.45;53.90;;;0.80;90.20;;;;;;5073177;28;20032;-80
2023/03/02 04:05:45;;;;;;;10.00;8.63;;;0.80;90.10;;;;;;5073759;28;20147;-80
2023/03/02 04:08:10;;;;;;;9.30;7.25;;;0.80;90.20;;;;;;5091478;28;20042;-79
2023/03/02 04:10:36;;;;;;;11.88;9.20;;;0.90;90.20;;;;;;5072903;28;20111;-80
2023/03/02 04:13:03;;;;;;;12.82;8.10;;;0.70;90.10;;;;;;5092867;28;20028;-81
2023/03/02 04:15:29;;;;;;;12.38;8.30;;;0.70;89.80;;;;;;5091845;28;20020;-82
2023/03/02 04:17:54;;;;;;;10.70;7.30;;;0.70;89.00;;;;;;5074225;28;20038;-82
2023/03/02 04:20:21;;;;;;;11.70;8.07;;;0.70;89.70;;;;;;5076879;28;20029;-83
2023/03/02 04:22:49;;;;;;;10.50;7.63;;;0.80;90.40;;;;;;5094241;28;20039;-84
2023/03/02 04:25:20;;;;;;;12.27;8.63;;;0.80;90.20;;;;;;5095285;28;20362;-83
2023/03/02 04:27:47;;;;;;;11.23;8.45;;;0.80;90.10;;;;;;5091563;28;20059;-82
2023/03/02 04:30:14;;;;;;;11.70;8.73;;;0.90;90.30;;;;;;5090848;28;20051;-83
2023/03/02 04:32:42;;;;;;;9.52;7.30;;;0.90;90.30;;;;;;5070855;28;20093;-78
2023/03/02 04:35:09;;;;;;;10.20;8.10;;;0.90;90.20;;;;;;5058779;28;20032;-84
2023/03/02 04:37:34;;;;;;;10.48;8.95;;;0.80;90.40;;;;;;5089930;28;20394;-79
2023/03/02 04:40:00;;;;;;;8.57;7.68;;;0.60;90.40;;;;;;5075809;28;20032;-82
2023/03/02 04:42:26;;;;;;;79.63;70.45;;;0.60;90.60;;;;;;5074471;28;20082;-83
2023/03/02 04:44:52;;;;;;;13.93;10.32;;;0.60;90.70;;;;;;5096756;28;20398;-84
2023/03/02 04:47:17;;;;;;;11.00;8.93;;;0.70;90.80;;;;;;5093144;28;20442;-83
2023/03/02 04:49:43;;;;;;;20.73;10.05;;;0.70;90.90;;;;;;5074578;28;20024;-81
2023/03/02 04:52:09;;;;;;;12.80;8.77;;;0.80;90.90;;;;;;5073933;28;20485;-84
2023/03/02 04:54:34;;;;;;;13.38;9.50;;;0.90;90.70;;;;;;5093885;28;20028;-81
2023/03/02 04:57:00;;;;;;;21.10;10.38;;;0.80;90.70;;;;;;5075372;28;20126;-82
2023/03/02 04:59:27;;;;;;;15.48;11.30;;;0.90;90.60;;;;;;5098353;28;20028;-85
2023/03/02 05:01:55;;;;;;;15.30;10.07;;;0.80;90.40;;;;;;5090273;28;20043;-83
2023/03/02 05:04:22;;;;;;;14.02;10.90;;;0.80;90.30;;;;;;5100244;28;20039;-83
2023/03/02 05:06:48;;;;;;;12.43;9.48;;;0.70;90.20;;;;;;5095907;28;20024;-80
2023/03/02 05:09:13;;;;;;;20.38;18.25;;;0.60;90.20;;;;;;5077867;28;20088;-82
2023/03/02 05:11:39;;;;;;;15.35;8.95;;;0.80;90.70;;;;;;5058508;28;20114;-80
2023/03/02 05:14:07;;;;;;;14.25;10.98;;;0.90;90.80;;;;;;5060144;28;20038;-81
2023/03/02 05:16:35;;;;;;;14.55;10.80;;;0.90;90.70;;;;;;5095740;28;20024;-84
2023/03/02 05:19:01;;;;;;;12.27;9.32;;;0.90;90.70;;;;;;5097079;28;20030;-83
2023/03/02 05:21:27;;;;;;;13.55;8.48;;;0.90;90.70;;;;;;5097119;28;20024;-80
2023/03/02 05:23:53;;;;;;;13.18;9.95;;;0.90;90.90;;;;;;5090173;28;20070;-83
2023/03/02 05:26:18;;;;;;;12.07;9.18;;;0.90;90.60;;;;;;5092817;28;20036;-85
2023/03/02 05:28:47;;;;;;;14.95;9.07;;;0.90;90.40;;;;;;5092617;28;20020;-77
2023/03/02 05:31:38;;;;;;;13.20;9.88;;;0.70;90.20;;;;;;5091320;28;20063;-82
2023/03/02 05:34:06;;;;;;;11.00;9.70;;;0.80;90.70;;;;;;5084275;28;20096;-83
2023/03/02 05:36:32;;;;;;;12.45;9.85;;;0.80;90.80;;;;;;5073730;28;20032;-85
2023/03/02 05:38:57;;;;;;;16.45;12.73;;;0.80;90.90;;;;;;5092329;28;20043;-80
2023/03/02 05:41:24;;;;;;;12.80;10.77;;;0.80;90.60;;;;;;5055457;28;20028;-81
2023/03/02 05:43:50;;;;;;;13.68;10.52;;;0.80;90.80;;;;;;5090554;28;20032;-82
2023/03/02 05:46:16;;;;;;;13.50;9.80;;;0.90;90.90;;;;;;5092120;28;20020;-83
2023/03/02 05:48:42;;;;;;;15.57;10.52;;;0.90;90.80;;;;;;5092258;28;20093;-80
2023/03/02 05:51:07;;;;;;;10.30;8.40;;;0.70;90.70;;;;;;5090746;28;20043;-82
2023/03/02 05:53:33;;;;;;;12.20;8.77;;;0.80;90.80;;;;;;5090659;28;20044;-81
2023/03/02 05:55:59;;;;;;;10.02;8.00;;;0.70;90.30;;;;;;5091904;28;20070;-79
2023/03/02 05:58:25;;;;;;;8.02;7.22;;;0.70;90.30;;;;;;5090226;28;20554;-85
2023/03/02 06:00:50;;;;;;;11.32;8.00;;;0.80;90.60;;;;;;5072017;28;20047;-85
2023/03/02 06:03:16;;;;;;;11.88;7.70;;;0.80;90.60;;;;;;5092058;28;20089;-80
2023/03/02 06:05:41;;;;;;;12.07;7.68;;;0.80;90.60;;;;;;5092136;28;20036;-83
2023/03/02 06:08:07;;;;;;;10.02;7.75;;;0.80;90.70;;;;;;5066078;28;20032;-79
2023/03/02 06:10:33;;;;;;;13.85;8.48;;;0.80;90.70;;;;;;5090925;28;20107;-82
2023/03/02 06:12:59;;;;;;;10.38;8.70;;;0.80;90.70;;;;;;5070843;28;20115;-87
2023/03/02 06:15:28;;;;;;;14.98;9.43;;;0.80;90.80;;;;;;5092109;28;20474;-85
2023/03/02 06:17:55;;;;;;;16.08;9.70;;;0.90;90.80;;;;;;5073711;28;20766;-86
2023/03/02 06:20:20;;;;;;;11.07;8.73;;;0.90;90.80;;;;;;5073140;28;20032;-86
2023/03/02 06:22:46;;;;;;;15.20;10.52;;;0.80;90.80;;;;;;5062478;28;20589;-84
2023/03/02 06:25:14;;;;;;;14.38;10.32;;;0.80;90.50;;;;;;5092244;28;20139;-83
2023/03/02 06:27:41;;;;;;;15.40;9.85;;;0.80;90.20;;;;;;5087950;28;20056;-85
2023/03/02 06:30:12;;;;;;;13.25;9.63;;;0.60;90.40;;;;;;5072298;28;20559;-84
2023/03/02 06:32:37;;;;;;;12.88;9.38;;;0.60;90.50;;;;;;5088729;28;20043;-81
2023/03/02 06:35:04;;;;;;;11.23;9.43;;;0.60;90.80;;;;;;5090729;28;20028;-86
2023/03/02 06:37:30;;;;;;;12.07;10.20;;;0.70;90.20;;;;;;5072665;28;20085;-81
2023/03/02 06:39:57;;;;;;;12.88;9.43;;;0.60;90.60;;;;;;5050344;28;20052;-75
2023/03/02 06:42:24;;;;;;;16.00;10.75;;;0.70;90.70;;;;;;5069458;28;20032;-78
2023/03/02 06:44:50;;;;;;;13.02;9.38;;;0.70;90.40;;;;;;5087005;28;20024;-80
2023/03/02 06:47:16;;;;;;;15.82;8.73;;;0.70;90.70;;;;;;5084462;28;20055;-78
2023/03/02 06:49:42;;;;;;;10.93;9.15;;;0.80;90.90;;;;;;5070393;28;20020;-78
2023/03/02 06:52:09;;;;;;;16.45;10.40;;;0.80;90.70;;;;;;5069603;28;20508;-78
2023/03/02 06:54:35;;;;;;;16.45;10.80;;;0.80;90.50;;;;;;5086265;28;20434;-77
2023/03/02 06:57:01;;;;;;;15.40;10.20;;;0.80;90.60;;;;;;5087380;28;20073;-82
2023/03/02 06:59:27;;;;;;;13.48;8.82;;;0.90;90.40;;;;;;5071617;28;20735;-77
2023/03/02 07:01:53;;;;;;;11.73;8.30;;;0.90;90.70;;;;;;5069710;28;20126;-79
2023/03/02 07:04:19;;;;;;;18.90;10.82;;;0.90;90.60;;;;;;5090301;28;20119;-82
2023/03/02 07:06:44;;;;;;;15.70;10.68;;;0.90;90.60;;;;;;5071083;28;20032;-83
2023/03/02 07:09:10;;;;;;;14.93;9.93;;;0.90;90.80;;;;;;5069134;28;20107;-83
2023/03/02 07:11:36;;;;;;;20.77;10.70;;;1.00;90.80;;;;;;5089807;28;20032;-83
2023/03/02 07:14:02;;;;;;;14.20;9.75;;;0.90;90.80;;;;;;5089957;28;20039;-84
2023/03/02 07:16:29;;;;;;;14.85;10.63;;;0.90;90.70;;;;;;5088895;28;20370;-84
2023/03/02 07:18:54;;;;;;;15.00;10.93;;;1.20;90.70;;;;;;5089823;28;20032;-85
2023/03/02 07:21:20;;;;;;;13.93;9.85;;;1.10;90.50;;;;;;5054020;28;20040;-84
2023/03/02 07:23:46;;;;;;;14.18;10.63;;;1.20;90.60;;;;;;5089318;28;20456;-79
2023/03/02 07:26:11;;;;;;;12.13;10.13;;;1.10;90.30;;;;;;5070947;28;20393;-82
2023/03/02 07:28:39;;;;;;;13.35;10.95;;;1.10;90.50;;;;;;5071048;28;20027;-82
2023/03/02 07:31:05;;;;;;;9.32;7.43;;;1.20;90.60;;;;;;5090083;28;20390;-81
2023/03/02 07:33:32;;;;;;;14.68;10.60;;;1.20;90.60;;;;;;5090190;28;20107;-81
2023/03/02 07:35:58;;;;;;;14.43;9.95;;;1.20;90.80;;;;;;5090226;28;20531;-82
2023/03/02 07:38:23;;;;;;;16.13;10.13;;;1.20;90.50;;;;;;5037824;28;20029;-83
2023/03/02 07:40:49;;;;;;;14.65;10.27;;;1.40;90.40;;;;;;5090259;28;20110;-78
2023/03/02 07:43:15;;;;;;;12.65;9.85;;;1.40;90.00;;;;;;5071702;28;20131;-83
2023/03/02 07:45:40;;;;;;;16.10;10.38;;;1.40;89.90;;;;;;5090201;28;20119;-80
2023/03/02 07:48:06;;;;;;;13.07;11.00;;;1.30;89.90;;;;;;5038624;28;20032;-80
2023/03/02 07:50:33;;;;;;;16.02;10.60;;;1.10;90.10;;;;;;5090164;28;20036;-79
2023/03/02 07:52:59;;;;;;;11.82;9.35;;;1.40;90.30;;;;;;5090343;28;20043;-83
2023/03/02 07:55:24;;;;;;;12.02;9.30;;;1.40;90.10;;;;;;5069862;28;20457;-83
2023/03/02 07:57:51;;;;;;;12.68;9.98;;;1.50;90.30;;;;;;5071630;28;20044;-80
2023/03/02 08:00:17;;;;;;;17.55;10.45;;;1.50;90.00;;;;;;5071339;28;20570;-82
2023/03/02 08:02:43;;;;;;;15.77;9.32;;;1.50;90.00;;;;;;5071944;28;20078;-83
2023/03/02 08:05:10;;;;;;;15.27;10.85;;;1.60;89.80;;;;;;5054366;28;20032;-81
2023/03/02 08:07:36;;;;;;;13.60;10.35;;;1.50;89.30;;;;;;5089831;28;20036;-79
2023/03/02 08:10:04;;;;;;;14.57;9.93;;;1.50;88.90;;;;;;5070162;28;20027;-81
2023/03/02 08:12:29;;;;;;;12.73;10.70;;;1.40;88.70;;;;;;5089608;28;20067;-83
2023/03/02 08:14:55;;;;;;;18.27;10.38;;;1.20;90.10;;;;;;5070414;28;20141;-79
2023/03/02 08:17:21;;;;;;;13.98;9.35;;;1.30;89.60;;;;;;5089052;28;20094;-80
2023/03/02 08:19:48;;;;;;;12.32;9.77;;;1.40;89.10;;;;;;5054825;28;20081;-77
2023/03/02 08:22:14;;;;;;;15.35;10.30;;;1.40;88.90;;;;;;5093339;28;20130;-80
2023/03/02 08:24:40;;;;;;;16.45;9.05;;;1.40;89.00;;;;;;5109808;28;20180;-82
2023/03/02 08:27:06;;;;;;;16.30;9.10;;;1.40;89.30;;;;;;5090985;28;20114;-78
2023/03/02 08:29:32;;;;;;;11.98;9.27;;;1.40;89.00;;;;;;5092201;28;20590;-80
2023/03/02 08:31:59;;;;;;;10.73;9.43;;;1.30;89.60;;;;;;5108978;28;20032;-79
2023/03/02 08:34:25;;;;;;;12.63;9.02;;;1.20;89.80;;;;;;5091527;28;20110;-82
2023/03/02 08:36:51;;;;;;;13.57;8.60;;;1.40;89.90;;;;;;5091752;28;20028;-82
2023/03/02 08:39:17;;;;;;;13.23;9.75;;;1.50;88.60;;;;;;5091325;28;20149;-78
2023/03/02 08:41:43;;;;;;;11.00;8.48;;;1.50;89.10;;;;;;5108041;28;20111;-81
2023/03/02 08:44:09;;;;;;;10.85;8.57;;;1.60;88.60;;;;;;5109609;28;20470;-82
2023/03/02 08:46:34;;;;;;;12.43;9.18;;;1.70;87.80;;;;;;5091471;28;20036;-80
2023/03/02 08:49:01;;;;;;;13.60;9.35;;;1.70;86.40;;;;;;5110143;28;20035;-81
2023/03/02 08:51:27;;;;;;;12.75;9.43;;;1.60;87.10;;;;;;5075138;28;20396;-77
2023/03/02 08:53:55;;;;;;;11.85;9.90;;;1.80;87.20;;;;;;5091677;28;20126;-80
2023/03/02 08:56:26;;;;;;;13.25;7.40;;;1.70;87.00;;;;;;5089693;28;20092;-82
2023/03/02 08:58:54;;;;;;;16.67;9.20;;;1.80;86.60;;;;;;5107810;28;20035;-80
2023/03/02 09:01:40;;;;;;;10.50;8.80;;;1.80;86.30;;;;;;5107884;28;20039;-81
2023/03/02 09:04:07;;;;;;;14.85;9.02;;;1.80;86.70;;;;;;5108020;28;20133;-83
2023/03/02 09:06:36;;;;;;;11.50;9.40;;;1.80;87.20;;;;;;5105076;28;20116;-81
2023/03/02 09:09:02;;;;;;;9.88;8.40;;;1.70;87.60;;;;;;5108129;28;20016;-79
2023/03/02 09:11:28;;;;;;;11.23;9.13;;;1.80;88.40;;;;;;5109298;28;20027;-82
2023/03/02 09:13:55;;;;;;;11.68;8.85;;;2.00;88.10;;;;;;5108513;28;20046;-83
2023/03/02 09:16:22;;;;;;;11.85;9.07;;;2.00;87.50;;;;;;5091106;28;20088;-81
2023/03/02 09:18:48;;;;;;;16.73;9.77;;;2.00;85.90;;;;;;5091470;28;20028;-78
2023/03/02 09:21:14;;;;;;;14.63;9.85;;;2.10;85.60;;;;;;5108699;28;20046;-80
2023/03/02 09:23:41;;;;;;;13.40;9.23;;;2.10;85.70;;;;;;5081588;28;20067;-80
2023/03/02 09:26:08;;;;;;;13.68;9.55;;;2.10;85.60;;;;;;5091257;28;20032;-84
2023/03/02 09:28:34;;;;;;;14.40;9.65;;;2.30;84.40;;;;;;5086522;28;20516;-80
2023/03/02 09:31:02;;;;;;;14.98;10.48;;;2.70;85.00;;;;;;5089388;28;20032;-80
2023/03/02 09:33:29;;;;;;;16.00;10.27;;;2.30;85.20;;;;;;5091465;28;20024;-78
2023/03/02 09:35:54;;;;;;;14.05;10.43;;;2.30;85.50;;;;;;5104640;28;20135;-81
2023/03/02 09:38:20;;;;;;;11.38;8.00;;;2.20;85.90;;;;;;5106866;28;20769;-83
2023/03/02 09:40:52;;;;;;;11.48;9.18;;;2.20;86.20;;;;;;5100620;28;20095;-83
2023/03/02 09:43:46;;;;;;;13.60;9.82;;;2.30;86.40;;;;;;5099822;28;20164;-82
2023/03/02 09:46:31;;;;;;;15.10;8.25;;;2.40;86.10;;;;;;5076781;28;20032;-82
2023/03/02 09:49:14;;;;;;;14.75;10.23;;;2.50;85.50;;;;;;5075841;28;20028;-84
2023/03/02 09:51:58;;;;;;;15.60;10.30;;;2.40;85.70;;;;;;5079125;28;20078;-82
2023/03/02 09:54:24;;;;;;;17.80;10.90;;;2.30;85.30;;;;;;5103125;28;20035;-83
2023/03/02 09:56:53;;;;;;;13.30;10.52;;;2.20;86.30;;;;;;5094321;28;20042;-84
2023/03/02 09:59:28;;;;;;;11.68;8.70;;;2.30;85.30;;;;;;5103861;28;20123;-84
2023/03/02 10:02:02;;;;;;;11.73;9.30;;;2.50;85.20;;;;;;5096366;28;20027;-82
2023/03/02 10:04:32;;;;;;;10.32;8.95;;;2.50;85.40;;;;;;5105091;28;20501;-86
2023/03/02 10:07:10;;;;;;;16.30;8.70;;;2.60;85.50;;;;;;5103309;28;20028;-83
2023/03/02 10:09:38;;;;;;;16.63;10.85;;;2.80;85.00;;;;;;5074399;28;20081;-78
2023/03/02 10:12:09;;;;;;;10.30;9.02;;;2.80;84.00;;;;;;5083747;28;20067;-83
2023/03/02 10:14:43;;;;;;;12.27;9.60;;;2.70;83.30;;;;;;5104148;28;20028;-80
2023/03/02 10:17:46;;;;;;;19.33;9.43;;;2.70;83.60;;;;;;5093229;28;20073;-80
2023/03/02 10:20:18;;;;;;;16.08;9.18;;;2.50;83.40;;;;;;5104593;28;20028;-83
2023/03/02 10:22:53;;;;;;;16.02;9.73;;;2.60;83.50;;;;;;5081344;28;20055;-83
2023/03/02 10:25:41;;;;;;;15.00;9.80;;;2.50;84.10;;;;;;5072069;28;20497;-79
2023/03/02 10:28:17;;;;;;;15.07;9.55;;;2.70;84.00;;;;;;5074216;28;20432;-81
2023/03/02 10:30:45;;;;;;;12.88;9.35;;;3.10;82.90;;;;;;5091379;28;20112;-80
2023/03/02 10:33:16;;;;;;;13.05;9.90;;;3.00;82.70;;;;;;5081175;28;20051;-81
2023/03/02 10:35:49;;;;;;;13.95;10.23;;;2.60;83.90;;;;;;5068139;28;20053;-81
2023/03/02 10:38:18;;;;;;;17.00;10.05;;;2.40;84.80;;;;;;5084951;28;20039;-82
2023/03/02 10:40:55;;;;;;;10.57;8.50;;;2.40;85.20;;;;;;5089063;28;20060;-82
2023/03/02 10:43:44;;;;;;;12.63;9.32;;;2.60;84.60;;;;;;5091178;28;20032;-84
2023/03/02 10:46:11;;;;;;;14.32;9.85;;;2.80;84.10;;;;;;5089278;28;20063;-81
2023/03/02 10:48:50;;;;;;;12.48;9.13;;;3.00;83.10;;;;;;5072952;28;20024;-80
2023/03/02 10:51:29;;;;;;;15.23;9.73;;;3.10;83.10;;;;;;5083311;28;20407;-80
2023/03/02 10:54:05;;;;;;;15.52;11.15;;;3.20;83.50;;;;;;5090012;28;20028;-78
2023/03/02 10:56:32;;;;;;;17.08;9.82;;;3.30;83.00;;;;;;5074466;28;20032;-80
2023/03/02 10:59:02;;;;;;;15.98;10.32;;;3.20;80.50;;;;;;5075482;28;20082;-78
2023/03/02 11:01:29;;;;;;;12.27;9.57;;;2.70;82.10;;;;;;5090428;28;20027;-80
2023/03/02 11:03:57;;;;;;;12.20;9.75;;;2.80;83.20;;;;;;5089460;28;20040;-81
2023/03/02 11:06:23;;;;;;;14.32;10.55;;;2.80;83.80;;;;;;5071302;28;20787;-79
2023/03/02 11:09:06;;;;;;;14.57;10.15;;;2.70;83.20;;;;;;5091938;28;20028;-79
2023/03/02 11:11:32;;;;;;;15.05;9.85;;;2.80;83.60;;;;;;5065623;28;20043;-82
2023/03/02 11:14:13;;;;;;;13.68;9.13;;;2.70;83.20;;;;;;5070718;28;20039;-84
2023/03/02 11:16:39;;;;;;;13.07;9.20;;;2.90;84.10;;;;;;5070632;28;20077;-80
2023/03/02 11:19:16;;;;;;;13.52;9.52;;;3.00;82.60;;;;;;5090920;28;20508;-81
2023/03/02 11:22:25;;;;;;;11.63;9.23;;;2.70;82.80;;;;;;5091965;28;20028;-77
2023/03/02 11:24:54;;;;;;;13.93;9.52;;;2.90;82.50;;;;;;5025205;28;20033;-83
2023/03/02 11:27:25;;;;;;;12.60;9.00;;;2.70;82.10;;;;;;5083150;28;20044;-83
2023/03/02 11:30:03;;;;;;;13.13;10.02;;;2.70;83.50;;;;;;5070224;28;20838;-83
2023/03/02 11:32:47;;;;;;;13.57;9.98;;;2.70;82.10;;;;;;5072857;28;20124;-84
2023/03/02 11:35:29;;;;;;;14.10;10.13;;;2.80;83.10;;;;;;5092291;28;20367;-79
2023/03/02 11:37:59;;;;;;;11.45;9.45;;;2.90;82.70;;;;;;5097041;28;20516;-84
2023/03/02 11:40:39;;;;;;;17.60;9.32;;;2.80;83.80;;;;;;5090118;28;20165;-84
2023/03/02 11:43:07;;;;;;;17.75;10.95;;;2.80;83.40;;;;;;5089751;28;20034;-85
2023/03/02 11:45:40;;;;;;;14.38;10.25;;;2.70;83.50;;;;;;5071694;28;20193;-83
2023/03/02 11:48:47;;;;;;;14.18;10.38;;;2.80;82.80;;;;;;5088427;28;20055;-82
2023/03/02 11:51:34;;;;;;;12.55;10.05;;;2.80;82.80;;;;;;5070887;28;20089;-84
2023/03/02 11:54:09;;;;;;;17.75;9.65;;;3.00;82.30;;;;;;5069916;28;20032;-84
2023/03/02 11:56:38;;;;;;;12.80;9.57;;;2.80;83.40;;;;;;5088842;28;20034;-82
2023/03/02 11:59:18;;;;;;;11.82;9.95;;;3.00;83.50;;;;;;5092347;28;20023;-82
2023/03/02 12:01:48;;;;;;;17.38;9.20;;;2.80;82.90;;;;;;5071780;28;20119;-84
2023/03/02 12:04:27;;;;;;;10.77;9.03;;;3.00;82.50;;;;;;5084289;28;20546;-85
2023/03/02 12:06:53;;;;;;;15.45;10.07;;;3.10;82.00;;;;;;5070378;28;20289;-85
2023/03/02 12:09:22;;;;;;;11.40;9.02;;;3.00;82.00;;;;;;5090787;28;20034;-83
2023/03/02 12:11:55;;;;;;;14.68;9.88;;;2.90;82.60;;;;;;5096220;28;20024;-82
2023/03/02 12:14:39;;;;;;;14.57;9.60;;;2.70;83.40;;;;;;5072632;28;20032;-83
2023/03/02 12:17:23;;;;;;;16.38;9.65;;;2.90;82.60;;;;;;5056962;28;20028;-82
2023/03/02 12:19:52;;;;;;;13.63;9.98;;;2.90;82.20;;;;;;5087134;28;20520;-84
2023/03/02 12:22:30;;;;;;;12.02;10.05;;;2.50;85.10;;;;;;5054649;28;20056;-80
2023/03/02 12:25:05;;;;;;;13.15;9.65;;;2.50;85.30;;;;;;5088414;28;20028;-83
2023/03/02 12:27:40;;;;;;;16.48;11.38;;;2.90;84.80;;;;;;5070301;28;20028;-83
2023/03/02 12:30:14;;;;;;;15.05;9.98;;;2.90;82.60;;;;;;5069839;28;20076;-84
2023/03/02 12:32:40;;;;;;;19.10;10.48;;;3.20;84.00;;;;;;5070797;28;20031;-83
2023/03/02 12:35:06;;;;;;;11.75;9.63;;;3.40;82.80;;;;;;5070935;28;20031;-80
2023/03/02 12:38:05;;;;;;;12.35;9.30;;;3.40;80.60;;;;;;5090027;28;20100;-84
2023/03/02 12:40:32;;;;;;;11.98;10.32;;;3.00;81.80;;;;;;5089929;28;20032;-82
2023/03/02 12:43:23;;;;;;;13.02;9.20;;;2.90;82.80;;;;;;5087500;28;20059;-81
2023/03/02 12:46:24;;;;;;;10.77;9.00;;;3.10;82.10;;;;;;5067460;28;20497;-83
2023/03/02 12:49:16;;;;;;;12.85;9.45;;;3.30;81.20;;;;;;5065472;28;20039;-85
2023/03/02 12:51:50;;;;;;;16.27;9.70;;;3.20;81.30;;;;;;5087092;28;20056;-85
2023/03/02 12:54:18;;;;;;;12.95;9.23;;;3.40;80.50;;;;;;5088883;28;20054;-84
2023/03/02 12:56:44;;;;;;;10.93;9.02;;;3.30;81.30;;;;;;5087757;28;20134;-85
2023/03/02 12:59:27;;;;;;;11.30;8.90;;;3.40;79.90;;;;;;5086945;28;20052;-80
2023/03/02 13:02:11;;;;;;;11.98;8.70;;;3.50;79.60;;;;;;5052509;28;20040;-84